Time;durP1;ratioP1;P1;durP2;ratioP2;P2;SDS_P1;SDS_P2;PMS_P1;PMS_P2;Temp;Humidity;BMP_temperature;BMP_pressure;BME280_temperature;BME280_humidity;BME280_pressure;Samples;Min_cycle;Max_cycle;Signal;HPM_P1;HPM_P2
2020/12/16 00:02:21;;;;;;;25.65;17.13;;;7.70;89.50;;;;;;5011741;28;20052;-73
2020/12/16 00:04:48;;;;;;;23.35;16.33;;;7.70;89.50;;;;;;5009356;28;20045;-74
2020/12/16 00:07:16;;;;;;;22.20;15.88;;;7.70;89.60;;;;;;5012501;28;20050;-73
2020/12/16 00:09:43;;;;;;;23.98;16.45;;;7.70;89.70;;;;;;5012266;28;20062;-73
2020/12/16 00:12:10;;;;;;;21.48;16.95;;;7.70;89.70;;;;;;5010199;28;20121;-74
2020/12/16 00:14:38;;;;;;;22.00;15.63;;;7.70;89.90;;;;;;5006481;28;20526;-74
2020/12/16 00:17:05;;;;;;;21.67;16.42;;;7.70;89.80;;;;;;5011161;28;20046;-72
2020/12/16 00:19:32;;;;;;;23.30;16.00;;;7.70;89.80;;;;;;5011479;28;20050;-75
2020/12/16 00:21:59;;;;;;;22.85;16.98;;;7.70;89.80;;;;;;5010228;28;20057;-72
2020/12/16 00:24:27;;;;;;;24.98;16.33;;;7.70;89.80;;;;;;5009771;28;20050;-75
2020/12/16 00:26:54;;;;;;;24.27;15.98;;;7.60;89.80;;;;;;5010590;28;20058;-73
2020/12/16 00:29:21;;;;;;;25.73;17.20;;;7.70;89.80;;;;;;5013546;28;20423;-73
2020/12/16 00:31:49;;;;;;;24.98;16.33;;;7.60;89.80;;;;;;5014948;28;20499;-72
2020/12/16 00:34:16;;;;;;;21.75;15.77;;;7.50;89.70;;;;;;5010915;28;20072;-74
2020/12/16 00:36:43;;;;;;;24.00;17.40;;;7.50;89.70;;;;;;5008439;28;20045;-73
2020/12/16 00:39:10;;;;;;;23.92;16.85;;;7.50;89.70;;;;;;5009784;28;20393;-72
2020/12/16 00:41:38;;;;;;;22.33;17.10;;;7.40;89.60;;;;;;5009114;28;20049;-73
2020/12/16 00:44:06;;;;;;;25.95;17.50;;;7.50;89.60;;;;;;5009717;28;20053;-73
2020/12/16 00:46:34;;;;;;;26.65;17.25;;;7.40;89.50;;;;;;5006430;28;20046;-74
2020/12/16 00:49:02;;;;;;;27.05;18.00;;;7.50;89.50;;;;;;5010307;28;20054;-72
2020/12/16 00:51:29;;;;;;;31.27;18.67;;;7.50;89.70;;;;;;5011712;28;20050;-72
2020/12/16 00:53:55;;;;;;;28.40;18.50;;;7.50;89.60;;;;;;5011789;28;20045;-72
2020/12/16 00:56:22;;;;;;;23.13;17.88;;;7.50;89.60;;;;;;5007053;28;20083;-72
2020/12/16 00:58:49;;;;;;;24.10;17.83;;;7.40;89.70;;;;;;5011265;28;20053;-73
2020/12/16 01:01:16;;;;;;;31.02;18.77;;;7.40;89.70;;;;;;5009287;28;20048;-73
2020/12/16 01:03:43;;;;;;;27.15;18.58;;;7.30;89.50;;;;;;5008450;28;20046;-72
2020/12/16 01:06:12;;;;;;;26.05;18.35;;;7.30;89.50;;;;;;5008205;28;20049;-73
2020/12/16 01:08:40;;;;;;;27.80;19.08;;;7.30;89.50;;;;;;5009679;28;20476;-73
2020/12/16 01:11:07;;;;;;;32.00;20.63;;;7.30;89.40;;;;;;5011826;28;20444;-73
2020/12/16 01:13:34;;;;;;;29.73;19.42;;;7.20;89.40;;;;;;5010655;28;20065;-73
2020/12/16 01:16:01;;;;;;;28.95;19.50;;;7.10;89.30;;;;;;5005289;28;20049;-74
2020/12/16 01:18:28;;;;;;;31.48;20.58;;;7.10;89.30;;;;;;5011127;28;20424;-73
2020/12/16 01:20:55;;;;;;;27.90;19.20;;;7.10;89.30;;;;;;5009059;28;20104;-71
2020/12/16 01:23:23;;;;;;;32.75;21.80;;;7.20;89.30;;;;;;5009646;28;20564;-72
2020/12/16 01:25:50;;;;;;;31.25;21.08;;;7.30;89.30;;;;;;5004357;28;20049;-73
2020/12/16 01:28:17;;;;;;;29.60;20.42;;;7.30;89.40;;;;;;5011405;28;20568;-72
2020/12/16 01:30:43;;;;;;;33.05;20.52;;;7.30;89.50;;;;;;5007874;28;20599;-72
2020/12/16 01:33:10;;;;;;;30.55;20.08;;;7.40;89.60;;;;;;5010012;28;20049;-73
2020/12/16 01:35:37;;;;;;;28.20;19.17;;;7.40;89.70;;;;;;5005894;28;20508;-72
2020/12/16 01:38:04;;;;;;;27.00;19.20;;;7.40;89.70;;;;;;5009373;28;20046;-72
2020/12/16 01:40:32;;;;;;;29.33;19.38;;;7.30;89.70;;;;;;5008487;28;20057;-72
2020/12/16 01:42:59;;;;;;;24.88;18.30;;;7.40;89.80;;;;;;5011134;28;20046;-72
2020/12/16 01:45:26;;;;;;;28.20;17.63;;;7.40;89.80;;;;;;5007090;28;20048;-72
2020/12/16 01:47:53;;;;;;;25.23;18.10;;;7.40;89.80;;;;;;5010656;28;20073;-73
2020/12/16 01:50:20;;;;;;;26.25;17.77;;;7.40;89.90;;;;;;5012310;28;20058;-73
2020/12/16 01:52:48;;;;;;;26.08;17.95;;;7.30;89.70;;;;;;5012876;28;20050;-73
2020/12/16 01:55:15;;;;;;;26.52;18.30;;;7.30;89.60;;;;;;5010517;28;20152;-73
2020/12/16 01:57:50;;;;;;;27.25;18.35;;;7.30;89.70;;;;;;5014286;28;20080;-73
2020/12/16 02:00:17;;;;;;;27.20;18.65;;;7.30;89.70;;;;;;5015023;28;20058;-73
2020/12/16 02:02:47;;;;;;;25.35;18.98;;;7.30;89.70;;;;;;5012310;28;20056;-72
2020/12/16 02:05:16;;;;;;;27.38;17.17;;;7.40;89.80;;;;;;5010609;28;20396;-71
2020/12/16 02:07:45;;;;;;;23.60;18.08;;;7.40;89.90;;;;;;5014021;28;20054;-72
2020/12/16 02:10:13;;;;;;;28.05;18.20;;;7.40;89.90;;;;;;5013565;28;20133;-73
2020/12/16 02:12:40;;;;;;;24.40;18.58;;;7.40;89.90;;;;;;5013843;28;20054;-72
2020/12/16 02:15:09;;;;;;;28.85;17.90;;;7.40;89.90;;;;;;5010612;28;20057;-72
2020/12/16 02:17:36;;;;;;;30.95;17.35;;;7.40;90.10;;;;;;5016033;28;20054;-73
2020/12/16 02:20:06;;;;;;;25.98;18.77;;;7.40;89.90;;;;;;5014332;28;20046;-73
2020/12/16 02:22:33;;;;;;;25.02;17.58;;;7.50;90.00;;;;;;5010672;28;20479;-73
2020/12/16 02:25:04;;;;;;;24.02;18.48;;;7.50;90.00;;;;;;5013828;28;20229;-73
2020/12/16 02:27:31;;;;;;;25.00;17.90;;;7.50;89.90;;;;;;5013839;28;20500;-73
2020/12/16 02:29:58;;;;;;;36.65;17.67;;;7.50;90.00;;;;;;5014050;28;20049;-73
2020/12/16 02:32:26;;;;;;;24.15;17.17;;;7.50;89.90;;;;;;5012247;28;20038;-73
2020/12/16 02:34:54;;;;;;;25.10;17.35;;;7.50;89.90;;;;;;5013562;28;20060;-73
2020/12/16 02:37:21;;;;;;;24.88;18.10;;;7.50;90.00;;;;;;5013975;28;20424;-73
2020/12/16 02:39:48;;;;;;;24.38;17.08;;;7.50;89.90;;;;;;5013653;28;20052;-73
2020/12/16 02:42:24;;;;;;;23.13;16.85;;;7.60;90.00;;;;;;5012375;28;20500;-73
2020/12/16 02:44:51;;;;;;;23.90;17.60;;;7.50;89.90;;;;;;5013218;28;20049;-73
2020/12/16 02:47:19;;;;;;;23.63;16.88;;;7.50;89.90;;;;;;5013868;28;20137;-73
2020/12/16 02:49:45;;;;;;;27.23;17.25;;;7.60;90.00;;;;;;5012615;28;20060;-73
2020/12/16 02:52:12;;;;;;;24.50;18.02;;;7.50;89.80;;;;;;5012485;28;20065;-71
2020/12/16 02:54:39;;;;;;;23.42;17.17;;;7.60;89.90;;;;;;5011628;28;20050;-71
2020/12/16 02:57:06;;;;;;;25.55;17.48;;;7.60;89.90;;;;;;5013269;28;20522;-72
2020/12/16 02:59:35;;;;;;;22.67;16.30;;;7.60;89.70;;;;;;5013534;28;20137;-71
2020/12/16 03:02:02;;;;;;;23.25;17.45;;;7.50;89.60;;;;;;5010815;28;20049;-72
2020/12/16 03:04:28;;;;;;;23.33;16.65;;;7.60;89.80;;;;;;5013126;28;20042;-72
2020/12/16 03:06:57;;;;;;;25.17;17.58;;;7.60;89.80;;;;;;5013012;28;20180;-72
2020/12/16 03:09:25;;;;;;;24.52;15.98;;;7.60;90.20;;;;;;5012959;28;20056;-71
2020/12/16 03:11:53;;;;;;;22.38;15.43;;;7.60;89.80;;;;;;5011836;28;20050;-72
2020/12/16 03:14:20;;;;;;;22.10;15.18;;;7.60;89.80;;;;;;5012849;28;20509;-72
2020/12/16 03:16:48;;;;;;;28.15;15.73;;;7.60;89.80;;;;;;5011639;28;20149;-72
2020/12/16 03:19:15;;;;;;;20.63;15.68;;;7.60;89.80;;;;;;5013195;28;20049;-72
2020/12/16 03:21:43;;;;;;;21.85;15.70;;;7.60;89.70;;;;;;5011756;28;20049;-72
2020/12/16 03:24:26;;;;;;;24.23;16.65;;;7.60;89.60;;;;;;5011838;28;20046;-73
2020/12/16 03:26:53;;;;;;;22.63;16.10;;;7.60;89.60;;;;;;5012596;28;20050;-73
2020/12/16 03:29:19;;;;;;;22.80;16.50;;;7.60;89.60;;;;;;5011336;28;20057;-72
2020/12/16 03:31:47;;;;;;;21.60;16.23;;;7.60;89.60;;;;;;5011181;28;20053;-72
2020/12/16 03:34:14;;;;;;;25.27;16.73;;;7.60;89.60;;;;;;5011528;28;20042;-71
2020/12/16 03:36:41;;;;;;;25.55;16.45;;;7.60;89.50;;;;;;5012528;28;20053;-72
2020/12/16 03:39:08;;;;;;;26.52;17.25;;;7.60;89.50;;;;;;5012752;28;20042;-72
2020/12/16 03:41:35;;;;;;;23.98;17.20;;;7.60;89.50;;;;;;5011262;28;20137;-72
2020/12/16 03:44:02;;;;;;;24.58;17.60;;;7.60;89.40;;;;;;5012285;28;20050;-72
2020/12/16 03:46:29;;;;;;;22.95;17.40;;;7.60;89.20;;;;;;5011265;28;20042;-72
2020/12/16 03:48:56;;;;;;;22.13;17.45;;;7.60;89.10;;;;;;5012703;28;20045;-72
2020/12/16 03:51:23;;;;;;;25.65;17.67;;;7.70;89.00;;;;;;5011357;28;20046;-72
2020/12/16 03:53:50;;;;;;;22.50;16.77;;;7.60;88.40;;;;;;5010633;28;20038;-72
2020/12/16 03:56:17;;;;;;;23.55;16.98;;;7.60;88.10;;;;;;5012153;28;20069;-72
2020/12/16 03:58:46;;;;;;;25.88;17.55;;;7.60;87.30;;;;;;5012369;28;20057;-72
2020/12/16 04:01:14;;;;;;;21.50;16.73;;;7.60;87.70;;;;;;5009879;28;20049;-72
2020/12/16 04:03:41;;;;;;;25.35;17.50;;;7.50;87.40;;;;;;5011767;28;20056;-72
2020/12/16 04:06:10;;;;;;;28.77;17.73;;;7.50;87.70;;;;;;5012398;28;20415;-72
2020/12/16 04:08:39;;;;;;;25.55;19.58;;;7.50;87.00;;;;;;5011039;28;20049;-72
2020/12/16 04:11:09;;;;;;;31.17;21.17;;;7.50;86.90;;;;;;5011048;28;20041;-71
2020/12/16 04:13:36;;;;;;;28.90;20.65;;;7.50;86.80;;;;;;5009786;28;20054;-73
2020/12/16 04:16:04;;;;;;;30.48;21.15;;;7.50;86.70;;;;;;5012192;28;20060;-72
2020/12/16 04:18:31;;;;;;;31.60;20.65;;;7.50;86.70;;;;;;5011887;28;20740;-72
2020/12/16 04:20:58;;;;;;;27.60;20.48;;;7.40;86.40;;;;;;5010741;28;20053;-71
2020/12/16 04:23:26;;;;;;;28.48;20.45;;;7.40;86.80;;;;;;5010172;28;20070;-72
2020/12/16 04:25:53;;;;;;;28.73;19.85;;;7.40;86.80;;;;;;5011335;28;20048;-72
2020/12/16 04:28:19;;;;;;;22.92;17.05;;;7.30;86.20;;;;;;5011712;28;20042;-73
2020/12/16 04:30:46;;;;;;;26.27;18.88;;;7.30;86.50;;;;;;5010519;28;20068;-72
2020/12/16 04:33:13;;;;;;;25.23;18.15;;;7.30;86.00;;;;;;5011849;28;20046;-71
2020/12/16 04:35:40;;;;;;;24.73;17.65;;;7.30;85.80;;;;;;5011405;28;20463;-72
2020/12/16 04:38:07;;;;;;;23.55;17.05;;;7.30;85.60;;;;;;5011687;28;20042;-72
2020/12/16 04:40:34;;;;;;;24.63;16.45;;;7.30;85.20;;;;;;5010543;28;20049;-72
2020/12/16 04:43:03;;;;;;;23.23;17.40;;;7.20;84.20;;;;;;5010787;28;20049;-72
2020/12/16 04:45:31;;;;;;;28.88;17.98;;;7.10;84.70;;;;;;5011269;28;20056;-72
2020/12/16 04:47:58;;;;;;;24.45;17.88;;;7.10;84.70;;;;;;5011526;28;20053;-72
2020/12/16 04:50:25;;;;;;;27.77;19.02;;;7.10;84.80;;;;;;5010551;28;20046;-72
2020/12/16 04:52:53;;;;;;;26.80;19.45;;;7.10;85.30;;;;;;5010797;28;20049;-71
2020/12/16 04:55:21;;;;;;;25.45;18.08;;;7.10;85.40;;;;;;5011333;28;20385;-72
2020/12/16 04:57:53;;;;;;;29.05;19.77;;;7.10;85.00;;;;;;5009837;28;20053;-72
2020/12/16 05:00:20;;;;;;;27.48;18.35;;;7.10;85.40;;;;;;5010465;28;20076;-72
2020/12/16 05:02:53;;;;;;;27.42;18.02;;;7.00;85.00;;;;;;5009400;28;20048;-72
2020/12/16 05:05:20;;;;;;;30.10;19.23;;;7.10;84.90;;;;;;5011022;28;20057;-72
2020/12/16 05:07:48;;;;;;;27.85;18.15;;;7.10;84.60;;;;;;5011511;28;20045;-71
2020/12/16 05:10:17;;;;;;;26.85;17.98;;;7.10;84.20;;;;;;5010535;28;20102;-72
2020/12/16 05:12:44;;;;;;;30.67;19.40;;;7.10;84.00;;;;;;5010834;28;20057;-72
2020/12/16 05:15:23;;;;;;;23.95;17.98;;;7.00;83.90;;;;;;5011152;28;20113;-72
2020/12/16 05:18:25;;;;;;;26.02;17.02;;;7.00;84.70;;;;;;5009682;28;20574;-71
2020/12/16 05:20:53;;;;;;;25.65;16.75;;;7.00;85.30;;;;;;4930405;29;20059;-71
2020/12/16 05:23:24;;;;;;;22.13;15.70;;;7.00;85.40;;;;;;4931724;29;20044;-72
2020/12/16 05:26:00;;;;;;;27.40;17.48;;;7.00;84.80;;;;;;4974655;28;20137;-71
2020/12/16 05:28:28;;;;;;;27.00;16.50;;;7.00;84.40;;;;;;5014896;28;20050;-72
2020/12/16 05:30:57;;;;;;;22.77;16.88;;;7.00;84.30;;;;;;5013231;28;20695;-72
2020/12/16 05:33:24;;;;;;;23.63;16.25;;;7.00;84.30;;;;;;5015150;28;20048;-71
2020/12/16 05:35:53;;;;;;;21.90;16.77;;;7.00;84.10;;;;;;5014901;28;20052;-71
2020/12/16 05:38:22;;;;;;;22.63;17.30;;;7.00;84.00;;;;;;5014812;28;20058;-71
2020/12/16 05:40:49;;;;;;;24.08;17.25;;;6.90;83.80;;;;;;5013737;28;20050;-71
2020/12/16 05:43:24;;;;;;;21.98;15.80;;;7.00;83.90;;;;;;5014467;28;20038;-71
2020/12/16 05:45:56;;;;;;;22.40;16.42;;;6.90;83.80;;;;;;5014424;28;20057;-72
2020/12/16 05:48:28;;;;;;;29.38;18.48;;;6.80;83.70;;;;;;5014483;28;20129;-71
2020/12/16 05:50:58;;;;;;;22.35;15.85;;;6.90;84.30;;;;;;5013490;28;20077;-71
2020/12/16 05:53:26;;;;;;;26.08;17.30;;;6.80;83.70;;;;;;5013111;28;20053;-71
2020/12/16 05:55:56;;;;;;;29.42;17.60;;;6.80;84.10;;;;;;5014011;28;20049;-72
2020/12/16 05:58:24;;;;;;;23.90;16.55;;;6.90;84.70;;;;;;5013068;28;20052;-71
2020/12/16 06:00:53;;;;;;;20.00;15.70;;;6.80;83.80;;;;;;5013455;28;20129;-71
2020/12/16 06:03:33;;;;;;;26.05;16.40;;;6.80;83.70;;;;;;5014206;28;20041;-71
2020/12/16 06:06:02;;;;;;;22.35;15.77;;;6.80;83.80;;;;;;5014321;28;20042;-71
2020/12/16 06:08:33;;;;;;;21.70;15.90;;;6.80;83.70;;;;;;5014312;28;20516;-72
2020/12/16 06:11:01;;;;;;;24.58;15.52;;;6.70;83.60;;;;;;5012448;28;20050;-73
2020/12/16 06:13:28;;;;;;;24.20;15.88;;;6.70;83.20;;;;;;5013986;28;20065;-72
2020/12/16 06:15:59;;;;;;;20.40;14.95;;;6.70;83.60;;;;;;5012915;28;20156;-73
2020/12/16 06:18:28;;;;;;;18.13;14.25;;;6.70;83.60;;;;;;5014363;28;20061;-72
2020/12/16 06:20:57;;;;;;;19.23;14.32;;;6.70;83.60;;;;;;5011620;28;20057;-71
2020/12/16 06:23:33;;;;;;;21.10;14.52;;;6.70;83.40;;;;;;5014078;28;20061;-73
2020/12/16 06:26:12;;;;;;;19.17;13.75;;;6.60;82.70;;;;;;5013201;28;20049;-71
2020/12/16 06:28:39;;;;;;;19.75;14.48;;;6.50;82.50;;;;;;5012620;28;20419;-71
2020/12/16 06:31:21;;;;;;;16.73;12.77;;;6.60;83.50;;;;;;5013188;28;20496;-72
2020/12/16 06:33:54;;;;;;;17.98;13.60;;;6.50;81.90;;;;;;5013784;28;20038;-71
2020/12/16 06:36:27;;;;;;;17.87;13.53;;;6.50;81.70;;;;;;5012376;28;20061;-71
2020/12/16 06:38:54;;;;;;;17.48;13.40;;;6.50;81.10;;;;;;5013030;28;20050;-72
2020/12/16 06:41:22;;;;;;;19.08;14.27;;;6.50;81.40;;;;;;5012529;28;20056;-72
2020/12/16 06:43:50;;;;;;;22.63;14.68;;;6.60;82.20;;;;;;5012272;28;20077;-72
2020/12/16 06:46:45;;;;;;;21.13;13.95;;;6.50;81.60;;;;;;5013865;28;20046;-72
2020/12/16 06:49:32;;;;;;;18.90;14.02;;;6.60;82.00;;;;;;5012006;28;20080;-72
2020/12/16 06:52:02;;;;;;;19.58;14.40;;;6.60;81.70;;;;;;5010724;28;20045;-72
2020/12/16 06:54:41;;;;;;;20.42;13.68;;;6.50;79.70;;;;;;5013006;28;20132;-71
2020/12/16 06:57:16;;;;;;;18.17;13.68;;;6.60;80.90;;;;;;5013410;28;20054;-73
2020/12/16 06:59:46;;;;;;;19.35;14.02;;;6.60;79.80;;;;;;5013896;28;20052;-72
2020/12/16 07:02:14;;;;;;;23.10;15.23;;;6.60;79.90;;;;;;5012845;28;20058;-72
2020/12/16 07:04:41;;;;;;;18.70;13.77;;;6.60;78.50;;;;;;5013443;28;20042;-71
2020/12/16 07:07:45;;;;;;;22.80;14.85;;;6.50;79.70;;;;;;5010620;28;20049;-71
2020/12/16 07:10:51;;;;;;;20.50;14.95;;;6.50;79.70;;;;;;5012233;28;20046;-72
2020/12/16 07:13:22;;;;;;;20.92;14.15;;;6.50;80.50;;;;;;5013453;28;20042;-72
2020/12/16 07:15:52;;;;;;;21.33;14.40;;;6.50;79.90;;;;;;5013284;28;20046;-72
2020/12/16 07:18:42;;;;;;;17.23;12.52;;;6.50;81.00;;;;;;5012036;28;20416;-73
2020/12/16 07:21:33;;;;;;;19.10;13.73;;;6.50;80.50;;;;;;5009782;28;20061;-71
2020/12/16 07:24:08;;;;;;;21.40;16.13;;;6.50;80.00;;;;;;5012671;28;20042;-73
2020/12/16 07:26:50;;;;;;;21.98;14.55;;;6.50;80.30;;;;;;5009612;28;20045;-72
2020/12/16 07:29:23;;;;;;;20.80;14.45;;;6.50;79.50;;;;;;5012926;28;20068;-72
2020/12/16 07:31:58;;;;;;;17.02;12.90;;;6.60;79.30;;;;;;5010930;28;20053;-72
2020/12/16 07:34:26;;;;;;;23.92;13.05;;;6.50;78.30;;;;;;5011551;28;20052;-72
2020/12/16 07:36:54;;;;;;;16.23;12.43;;;6.50;77.40;;;;;;5012874;28;20486;-72
2020/12/16 07:39:22;;;;;;;17.48;13.13;;;6.60;77.60;;;;;;5012885;28;20046;-71
2020/12/16 07:41:49;;;;;;;21.35;13.43;;;6.50;75.70;;;;;;5010756;28;20049;-72
2020/12/16 07:44:16;;;;;;;17.90;12.82;;;6.50;76.20;;;;;;5012381;28;20048;-72
2020/12/16 07:46:44;;;;;;;18.55;12.93;;;6.60;75.80;;;;;;5012754;28;20053;-72
2020/12/16 07:49:12;;;;;;;17.48;13.43;;;6.60;75.80;;;;;;5008279;28;20050;-72
2020/12/16 07:51:39;;;;;;;15.95;11.82;;;6.50;76.40;;;;;;5012008;28;20054;-72
2020/12/16 07:54:06;;;;;;;15.25;12.30;;;6.50;76.80;;;;;;5012765;28;20045;-72
2020/12/16 07:56:34;;;;;;;14.93;10.98;;;6.50;76.30;;;;;;5010946;28;20046;-73
2020/12/16 07:59:11;;;;;;;13.68;10.75;;;6.40;74.70;;;;;;5011851;28;20527;-71
2020/12/16 08:01:38;;;;;;;15.55;11.68;;;6.50;76.50;;;;;;5010728;28;20054;-72
2020/12/16 08:04:05;;;;;;;19.35;13.55;;;6.50;76.50;;;;;;5012315;28;20046;-72
2020/12/16 08:06:33;;;;;;;16.13;13.40;;;6.50;77.10;;;;;;5009867;28;20416;-72
2020/12/16 08:08:59;;;;;;;15.77;11.90;;;6.50;76.80;;;;;;5012966;28;20050;-72
2020/12/16 08:11:28;;;;;;;15.82;10.95;;;6.60;75.80;;;;;;5011382;28;20096;-72
2020/12/16 08:14:07;;;;;;;14.50;10.80;;;6.60;75.10;;;;;;5012637;28;20056;-72
2020/12/16 08:16:36;;;;;;;16.58;11.50;;;6.60;73.70;;;;;;5012651;28;20053;-72
2020/12/16 08:19:04;;;;;;;16.23;12.10;;;6.60;73.30;;;;;;5011621;28;20060;-72
2020/12/16 08:21:31;;;;;;;18.98;12.75;;;6.60;73.80;;;;;;5011480;28;20230;-72
2020/12/16 08:23:58;;;;;;;15.65;11.40;;;6.60;72.80;;;;;;5012188;28;20129;-72
2020/12/16 08:26:26;;;;;;;28.65;16.95;;;6.60;74.10;;;;;;5012447;28;20119;-72
2020/12/16 08:28:53;;;;;;;14.90;10.57;;;6.70;72.90;;;;;;5012987;28;20053;-72
2020/12/16 08:31:33;;;;;;;14.13;10.20;;;6.70;71.90;;;;;;5009887;28;20104;-72
2020/12/16 08:34:02;;;;;;;12.70;9.63;;;6.70;71.90;;;;;;5010817;28;20076;-73
2020/12/16 08:36:33;;;;;;;14.30;10.30;;;6.70;72.60;;;;;;5012803;28;20053;-72
2020/12/16 08:39:05;;;;;;;12.77;9.50;;;6.80;71.90;;;;;;5009257;28;20692;-72
2020/12/16 08:41:35;;;;;;;14.23;10.60;;;6.90;71.30;;;;;;5011424;28;20057;-72
2020/12/16 08:44:05;;;;;;;15.20;10.02;;;7.00;69.00;;;;;;5009485;28;20050;-72
2020/12/16 08:46:39;;;;;;;12.50;9.45;;;7.10;67.50;;;;;;5011754;28;20053;-72
2020/12/16 08:49:06;;;;;;;14.43;9.73;;;7.10;67.80;;;;;;5012712;28;20129;-72
2020/12/16 08:51:36;;;;;;;13.85;9.05;;;7.20;67.60;;;;;;5009013;28;20046;-72
2020/12/16 08:54:06;;;;;;;11.13;9.05;;;7.20;66.60;;;;;;5011707;28;20125;-72
2020/12/16 08:56:36;;;;;;;11.25;9.00;;;7.30;64.90;;;;;;5010345;28;20064;-72
2020/12/16 08:59:09;;;;;;;11.68;9.05;;;7.40;64.60;;;;;;5012367;28;20542;-73
2020/12/16 09:01:38;;;;;;;12.35;8.68;;;7.40;64.30;;;;;;5007092;28;20045;-73
2020/12/16 09:04:05;;;;;;;11.50;8.57;;;7.40;62.60;;;;;;5011007;28;20052;-72
2020/12/16 09:06:32;;;;;;;12.10;9.45;;;7.40;64.30;;;;;;5011768;28;20061;-76
2020/12/16 09:08:59;;;;;;;11.63;8.98;;;7.60;64.50;;;;;;5011477;28;20735;-72
2020/12/16 09:11:26;;;;;;;12.77;8.50;;;7.70;64.10;;;;;;5010669;28;20385;-73
2020/12/16 09:13:58;;;;;;;13.57;9.07;;;7.70;62.20;;;;;;5010350;28;20042;-72
2020/12/16 09:16:26;;;;;;;13.15;9.88;;;7.70;60.60;;;;;;5009978;28;20067;-72
2020/12/16 09:18:54;;;;;;;14.43;9.88;;;7.70;62.20;;;;;;5011590;28;20397;-72
2020/12/16 09:21:34;;;;;;;15.50;10.20;;;7.70;62.00;;;;;;5010718;28;20057;-72
2020/12/16 09:24:01;;;;;;;17.27;9.73;;;7.70;61.10;;;;;;5011435;28;20506;-73
2020/12/16 09:30:25;;;;;;;13.90;9.73;;;7.80;61.30;;;;;;5006296;28;20041;-72
2020/12/16 09:32:52;;;;;;;13.63;9.50;;;8.00;60.70;;;;;;5010024;28;20078;-73
2020/12/16 09:35:22;;;;;;;16.38;9.80;;;8.00;58.10;;;;;;5010441;28;20072;-72
2020/12/16 09:37:49;;;;;;;16.25;9.50;;;8.10;57.70;;;;;;5011325;28;20415;-72
2020/12/16 09:40:16;;;;;;;14.00;9.45;;;8.30;57.70;;;;;;5007161;28;20049;-72
2020/12/16 09:42:57;;;;;;;13.13;8.95;;;8.30;55.40;;;;;;5011361;28;20070;-73
2020/12/16 09:45:25;;;;;;;11.13;9.05;;;8.50;54.90;;;;;;5010950;28;20077;-73
2020/12/16 09:47:53;;;;;;;11.25;8.38;;;8.50;53.20;;;;;;5012723;28;20054;-73
2020/12/16 09:50:26;;;;;;;10.48;7.80;;;8.50;53.20;;;;;;5009261;28;20104;-73
2020/12/16 09:52:58;;;;;;;11.85;9.10;;;8.60;53.00;;;;;;5011628;28;20500;-72
2020/12/16 09:55:25;;;;;;;12.95;8.25;;;8.60;51.60;;;;;;5006762;28;20357;-72
2020/12/16 09:58:10;;;;;;;13.48;8.95;;;8.80;51.40;;;;;;5011478;28;20077;-73
2020/12/16 10:00:40;;;;;;;12.05;8.52;;;8.90;49.50;;;;;;5010234;28;20054;-73
2020/12/16 10:03:08;;;;;;;11.05;8.10;;;8.90;49.50;;;;;;5009762;28;20425;-73
2020/12/16 10:05:37;;;;;;;13.73;7.03;;;9.20;48.80;;;;;;5010760;28;20156;-72
2020/12/16 10:08:09;;;;;;;11.60;7.68;;;9.20;44.50;;;;;;5009325;28;20053;-72
2020/12/16 10:10:37;;;;;;;10.00;8.25;;;9.20;45.70;;;;;;5010171;28;20050;-73
2020/12/16 10:13:04;;;;;;;16.90;6.82;;;9.50;46.30;;;;;;5013398;28;20046;-73
2020/12/16 10:15:30;;;;;;;9.25;7.03;;;9.50;43.90;;;;;;5014345;28;20502;-71
2020/12/16 10:17:58;;;;;;;17.63;12.32;;;9.50;43.20;;;;;;5014437;28;20050;-72
2020/12/16 10:20:26;;;;;;;10.18;7.57;;;9.60;43.50;;;;;;5012097;28;20790;-73
2020/12/16 10:22:54;;;;;;;10.10;7.63;;;9.50;44.00;;;;;;5013741;28;20416;-72
2020/12/16 10:25:21;;;;;;;11.43;7.72;;;9.60;44.50;;;;;;5013687;28;20050;-73
2020/12/16 10:27:49;;;;;;;10.05;7.53;;;9.60;44.70;;;;;;5012937;28;20050;-73
2020/12/16 10:30:16;;;;;;;10.38;7.50;;;9.70;43.80;;;;;;5012163;28;20050;-74
2020/12/16 10:32:43;;;;;;;10.98;7.15;;;9.80;44.10;;;;;;5013469;28;20049;-72
2020/12/16 10:35:10;;;;;;;9.32;6.80;;;9.90;40.40;;;;;;5011806;28;20088;-74
2020/12/16 10:37:40;;;;;;;12.65;7.53;;;9.90;40.80;;;;;;5013667;28;20060;-74
2020/12/16 10:40:09;;;;;;;9.18;6.30;;;9.80;41.50;;;;;;5012630;28;20060;-73
2020/12/16 10:42:36;;;;;;;10.90;8.07;;;9.80;42.70;;;;;;5013589;28;20057;-73
2020/12/16 10:45:03;;;;;;;9.80;7.40;;;9.90;42.10;;;;;;5012980;28;20050;-71
2020/12/16 10:47:30;;;;;;;8.52;6.32;;;9.90;42.30;;;;;;5013481;28;20045;-73
2020/12/16 10:49:57;;;;;;;8.95;6.90;;;9.90;42.00;;;;;;5012749;28;20045;-73
2020/12/16 10:52:24;;;;;;;11.95;7.07;;;9.80;40.40;;;;;;5011858;28;20069;-73
2020/12/16 10:54:51;;;;;;;12.75;8.50;;;9.80;42.00;;;;;;5012636;28;20044;-72
2020/12/16 10:57:20;;;;;;;10.70;7.35;;;9.90;41.30;;;;;;5012269;28;20129;-73
2020/12/16 10:59:47;;;;;;;10.82;7.90;;;9.80;40.70;;;;;;5011815;28;20393;-73
2020/12/16 11:02:15;;;;;;;12.85;8.65;;;9.80;42.00;;;;;;5012262;28;20137;-75
2020/12/16 11:04:44;;;;;;;11.00;7.55;;;9.80;41.00;;;;;;5012982;28;20046;-73
2020/12/16 11:07:11;;;;;;;10.45;7.13;;;9.80;41.50;;;;;;5013163;28;20052;-74
2020/12/16 11:09:38;;;;;;;10.05;7.85;;;9.90;41.50;;;;;;5011071;28;20054;-72
2020/12/16 11:12:05;;;;;;;17.35;8.55;;;9.90;42.10;;;;;;5012247;28;20503;-73
2020/12/16 11:14:32;;;;;;;12.65;8.23;;;9.90;40.80;;;;;;5012264;28;20050;-72
2020/12/16 11:16:58;;;;;;;10.65;7.90;;;10.00;39.20;;;;;;5012741;28;20056;-72
2020/12/16 11:19:26;;;;;;;12.00;8.98;;;10.00;40.10;;;;;;5012350;28;20050;-73
2020/12/16 11:21:53;;;;;;;13.88;8.40;;;9.90;40.40;;;;;;5011904;28;20050;-73
2020/12/16 11:24:22;;;;;;;9.95;8.25;;;10.00;38.70;;;;;;5012454;28;20038;-73
2020/12/16 11:26:52;;;;;;;18.77;9.35;;;10.00;39.90;;;;;;5013080;28;20046;-72
2020/12/16 11:29:21;;;;;;;12.90;9.27;;;10.00;39.60;;;;;;5012626;28;20050;-72
2020/12/16 11:31:50;;;;;;;18.15;10.10;;;10.00;40.40;;;;;;5010728;28;20046;-73
2020/12/16 11:34:19;;;;;;;16.00;9.75;;;10.10;38.50;;;;;;5012135;28;20042;-72
2020/12/16 11:36:48;;;;;;;18.85;9.73;;;10.00;38.20;;;;;;5012523;28;20046;-74
2020/12/16 11:39:16;;;;;;;13.15;9.27;;;10.00;39.30;;;;;;5012389;28;20042;-73
2020/12/16 11:41:45;;;;;;;15.15;10.95;;;10.10;39.40;;;;;;5008931;28;20445;-73
2020/12/16 11:44:13;;;;;;;13.10;10.52;;;10.20;38.90;;;;;;5012641;28;20118;-74
2020/12/16 11:46:39;;;;;;;13.80;8.88;;;10.20;38.30;;;;;;5012655;28;20054;-72
2020/12/16 11:49:20;;;;;;;13.10;9.15;;;10.20;37.50;;;;;;5009582;28;20060;-71
2020/12/16 11:51:47;;;;;;;11.75;8.93;;;10.30;37.30;;;;;;5012635;28;20053;-74
2020/12/16 11:54:15;;;;;;;15.52;9.18;;;10.30;35.80;;;;;;5012822;28;20389;-72
2020/12/16 11:56:42;;;;;;;13.65;9.48;;;10.30;37.00;;;;;;5012678;28;20133;-72
2020/12/16 11:59:24;;;;;;;13.80;9.10;;;10.30;36.60;;;;;;5012793;28;20056;-73
2020/12/16 12:01:54;;;;;;;13.77;9.43;;;10.40;36.20;;;;;;5010566;28;20046;-72
2020/12/16 12:04:21;;;;;;;13.02;8.85;;;10.30;36.30;;;;;;5011665;28;20050;-72
2020/12/16 12:06:49;;;;;;;11.98;9.25;;;10.40;35.50;;;;;;5008440;28;20670;-73
2020/12/16 12:09:19;;;;;;;16.38;9.88;;;10.40;34.80;;;;;;5012800;28;20159;-74
2020/12/16 12:11:48;;;;;;;14.63;10.32;;;10.40;34.70;;;;;;5010845;28;20046;-72
2020/12/16 12:14:15;;;;;;;15.77;10.50;;;10.50;34.60;;;;;;5014865;28;20129;-75
2020/12/16 12:16:43;;;;;;;16.02;10.48;;;10.50;35.70;;;;;;5013138;28;20046;-72
2020/12/16 12:19:11;;;;;;;13.88;10.23;;;10.50;35.10;;;;;;5015330;28;20053;-72
2020/12/16 12:21:38;;;;;;;13.23;9.57;;;10.50;35.10;;;;;;5018642;28;20077;-71
2020/12/16 12:24:06;;;;;;;14.77;10.15;;;10.60;34.10;;;;;;5012408;28;20084;-71
2020/12/16 12:26:33;;;;;;;13.15;10.10;;;10.60;34.30;;;;;;5014444;28;20096;-71
2020/12/16 12:29:00;;;;;;;15.88;11.02;;;10.60;35.30;;;;;;5012947;28;20126;-72
2020/12/16 12:31:27;;;;;;;14.50;9.90;;;10.70;33.50;;;;;;5012218;28;20145;-72
2020/12/16 12:33:54;;;;;;;15.18;9.93;;;10.70;33.40;;;;;;5014244;28;20089;-73
2020/12/16 12:36:21;;;;;;;14.52;9.75;;;10.70;33.40;;;;;;5011536;28;20049;-72
2020/12/16 12:38:51;;;;;;;13.25;9.63;;;10.80;32.00;;;;;;5007695;28;20042;-73
2020/12/16 12:41:19;;;;;;;12.77;9.05;;;10.70;32.50;;;;;;5007933;28;20049;-73
2020/12/16 12:43:46;;;;;;;12.75;9.27;;;10.80;31.40;;;;;;5011225;28;20140;-73
2020/12/16 12:46:13;;;;;;;14.27;9.07;;;10.80;31.80;;;;;;5009943;28;20124;-74
2020/12/16 12:48:40;;;;;;;14.20;9.63;;;10.80;32.10;;;;;;5010259;28;20052;-72
2020/12/16 12:51:09;;;;;;;12.63;9.00;;;10.80;33.40;;;;;;5009634;28;20105;-73
2020/12/16 12:53:51;;;;;;;13.00;9.07;;;10.80;33.40;;;;;;5011277;28;20106;-72